Time;durP1;ratioP1;P1;durP2;ratioP2;P2;SDS_P1;SDS_P2;PMS_P1;PMS_P2;Temp;Humidity;BMP_temperature;BMP_pressure;BME280_temperature;BME280_humidity;BME280_pressure;Samples;Min_cycle;Max_cycle;Signal;HPM_P1;HPM_P2
2021/09/14 00:00:41;;;;;;;1.63;1.52;;;21.50;66.70;;;;;;5029489;28;20091;-79
2021/09/14 00:03:07;;;;;;;1.38;1.27;;;21.50;67.40;;;;;;5029811;28;20034;-79
2021/09/14 00:05:32;;;;;;;1.73;1.63;;;21.40;67.50;;;;;;5012082;28;20062;-80
2021/09/14 00:07:58;;;;;;;2.45;1.80;;;21.20;66.80;;;;;;5029696;28;20049;-81
2021/09/14 00:10:24;;;;;;;1.95;1.85;;;21.20;66.00;;;;;;5029786;28;20374;-78
2021/09/14 00:12:49;;;;;;;1.15;1.10;;;21.30;64.90;;;;;;5029752;28;20025;-81
2021/09/14 00:15:15;;;;;;;1.88;1.77;;;21.30;66.20;;;;;;5029431;28;20078;-80
2021/09/14 00:17:41;;;;;;;1.45;1.35;;;21.10;67.30;;;;;;5029673;28;20030;-81
2021/09/14 00:20:07;;;;;;;2.00;1.83;;;21.20;67.60;;;;;;5029568;28;20053;-81
2021/09/14 00:22:33;;;;;;;1.58;1.48;;;21.20;66.90;;;;;;5029349;28;20040;-82
2021/09/14 00:24:59;;;;;;;3.38;2.47;;;21.00;65.90;;;;;;5033186;28;20025;-81
2021/09/14 00:27:24;;;;;;;1.40;1.30;;;21.10;66.20;;;;;;5015764;28;20033;-82
2021/09/14 00:29:50;;;;;;;1.23;1.17;;;21.10;65.40;;;;;;5033077;28;20022;-79
2021/09/14 00:32:16;;;;;;;1.73;1.63;;;21.20;66.70;;;;;;5032003;28;20026;-81
2021/09/14 00:34:42;;;;;;;1.63;1.52;;;21.30;65.50;;;;;;5032303;28;20049;-80
2021/09/14 00:37:07;;;;;;;12.60;2.28;;;21.30;66.30;;;;;;5033140;28;20035;-79
2021/09/14 00:39:33;;;;;;;1.65;1.55;;;21.30;67.10;;;;;;5033272;28;20033;-79
2021/09/14 00:41:59;;;;;;;2.28;2.13;;;21.10;67.30;;;;;;5031973;28;20064;-80
2021/09/14 00:44:25;;;;;;;1.48;1.38;;;21.00;67.80;;;;;;5033158;28;20388;-78
2021/09/14 00:46:50;;;;;;;2.70;2.50;;;21.00;67.80;;;;;;5032877;28;20037;-79
2021/09/14 00:49:16;;;;;;;1.30;1.20;;;20.90;68.00;;;;;;5033083;28;20041;-81
2021/09/14 00:51:42;;;;;;;1.60;1.50;;;20.90;68.70;;;;;;5033075;28;20065;-79
2021/09/14 00:54:17;;;;;;;2.97;2.70;;;20.70;69.90;;;;;;5033211;28;20025;-80
2021/09/14 00:56:43;;;;;;;2.50;2.13;;;20.60;70.50;;;;;;5033059;28;20444;-80
2021/09/14 00:59:10;;;;;;;1.67;1.58;;;20.40;70.70;;;;;;5032950;28;20072;-79
2021/09/14 01:01:36;;;;;;;2.88;2.63;;;20.20;71.50;;;;;;5030930;28;20113;-80
2021/09/14 01:04:03;;;;;;;6.38;3.90;;;20.30;71.60;;;;;;5032774;28;20033;-80
2021/09/14 01:06:29;;;;;;;1.50;1.40;;;20.40;71.50;;;;;;5050870;28;20041;-81
2021/09/14 01:08:56;;;;;;;1.52;1.42;;;20.50;71.20;;;;;;5052523;28;20025;-80
2021/09/14 01:11:21;;;;;;;3.88;3.58;;;20.20;70.70;;;;;;5052368;28;20128;-79
2021/09/14 01:13:47;;;;;;;3.45;2.30;;;20.30;70.30;;;;;;5034725;28;20757;-79
2021/09/14 01:16:13;;;;;;;3.25;2.85;;;20.40;70.40;;;;;;5051934;28;20025;-81
2021/09/14 01:18:40;;;;;;;2.42;2.22;;;20.30;70.30;;;;;;5034350;28;20404;-80
2021/09/14 01:21:06;;;;;;;9.60;3.60;;;20.40;70.30;;;;;;5052868;28;20091;-79
2021/09/14 01:23:32;;;;;;;2.72;2.53;;;20.40;71.10;;;;;;5052417;28;20018;-81
2021/09/14 01:25:58;;;;;;;2.75;2.55;;;20.40;70.60;;;;;;5052450;28;20021;-79
2021/09/14 01:28:24;;;;;;;3.00;2.80;;;20.20;70.00;;;;;;5034092;28;20104;-79
2021/09/14 01:30:50;;;;;;;4.10;3.30;;;20.20;68.50;;;;;;5032665;28;20024;-80
2021/09/14 01:33:16;;;;;;;1.58;1.48;;;20.20;68.60;;;;;;5032230;28;20499;-81
2021/09/14 01:35:43;;;;;;;1.95;1.77;;;20.00;67.90;;;;;;5031592;28;20036;-82
2021/09/14 01:38:09;;;;;;;2.10;1.98;;;20.20;69.00;;;;;;5032070;28;20028;-80
2021/09/14 01:40:35;;;;;;;1.80;1.35;;;20.40;69.20;;;;;;5032146;28;20061;-78
2021/09/14 01:43:05;;;;;;;1.35;1.25;;;20.50;68.70;;;;;;5032168;28;20029;-78
2021/09/14 01:45:31;;;;;;;2.75;2.55;;;20.30;68.40;;;;;;5032242;28;20017;-80
2021/09/14 01:47:56;;;;;;;1.13;1.10;;;20.20;68.30;;;;;;5031560;28;20099;-80
2021/09/14 01:50:22;;;;;;;1.40;1.30;;;20.30;68.70;;;;;;5032398;28;20029;-82
2021/09/14 01:52:48;;;;;;;2.33;2.13;;;20.30;68.50;;;;;;5032022;28;20534;-82
2021/09/14 01:55:17;;;;;;;2.95;2.67;;;20.30;69.30;;;;;;5031812;28;20537;-79
2021/09/14 01:57:43;;;;;;;2.28;2.08;;;20.10;69.90;;;;;;5031958;28;20099;-81
2021/09/14 02:00:16;;;;;;;1.52;1.42;;;20.00;70.80;;;;;;5031932;28;20440;-79
2021/09/14 02:05:20;;;;;;;1.58;1.48;;;19.90;71.20;;;;;;5031918;28;20408;-79
2021/09/14 02:43:01;;;;;;;2.05;1.95;;;19.50;73.10;;;;;;5031061;28;20021;-79
2021/09/14 02:56:38;;;;;;;1.63;1.52;;;19.30;73.70;;;;;;5030341;28;20087;-80
2021/09/14 02:59:03;;;;;;;2.17;1.98;;;19.30;73.40;;;;;;5030575;28;20057;-79
2021/09/14 03:01:29;;;;;;;1.52;1.42;;;19.20;75.10;;;;;;5030467;28;20063;-78
2021/09/14 03:03:56;;;;;;;1.98;1.83;;;19.20;74.50;;;;;;5029244;28;20017;-81
2021/09/14 03:06:24;;;;;;;1.70;1.60;;;19.10;73.10;;;;;;5029009;28;20049;-80
2021/09/14 03:08:50;;;;;;;1.70;1.60;;;19.10;73.70;;;;;;5030490;28;20036;-81
2021/09/14 03:11:18;;;;;;;1.73;1.63;;;19.30;71.70;;;;;;5028982;28;20022;-79
2021/09/14 03:13:44;;;;;;;3.17;2.95;;;19.30;73.30;;;;;;5028823;28;20025;-81
2021/09/14 03:16:12;;;;;;;1.77;1.67;;;19.30;74.50;;;;;;5029961;28;20136;-79
2021/09/14 03:18:39;;;;;;;1.83;1.73;;;19.30;75.20;;;;;;5030266;28;20033;-79
2021/09/14 03:21:06;;;;;;;2.17;1.73;;;19.30;75.90;;;;;;5030609;28;20044;-80
2021/09/14 03:23:33;;;;;;;2.30;2.10;;;19.30;75.40;;;;;;5030445;28;20164;-79
2021/09/14 03:25:59;;;;;;;4.32;2.90;;;19.10;75.60;;;;;;5028813;28;20526;-83
2021/09/14 03:28:25;;;;;;;3.20;2.90;;;19.00;76.10;;;;;;5030236;28;20025;-80
2021/09/14 03:30:51;;;;;;;2.15;1.95;;;18.90;74.60;;;;;;5030082;28;20029;-80
2021/09/14 03:33:17;;;;;;;2.72;2.53;;;18.80;75.60;;;;;;5029923;28;20037;-83
2021/09/14 03:35:44;;;;;;;1.50;1.40;;;18.90;75.80;;;;;;5030691;28;20037;-80
2021/09/14 03:38:11;;;;;;;2.33;2.15;;;19.10;75.90;;;;;;5030430;28;20029;-80
2021/09/14 03:40:39;;;;;;;1.83;1.73;;;19.00;76.90;;;;;;5029993;28;20392;-81
2021/09/14 03:43:05;;;;;;;2.13;2.00;;;19.00;77.30;;;;;;5030243;28;20727;-81
2021/09/14 03:45:31;;;;;;;1.60;1.50;;;18.90;77.60;;;;;;5029846;28;20487;-80
2021/09/14 03:47:57;;;;;;;1.70;1.60;;;18.90;78.20;;;;;;5030036;28;20497;-80
2021/09/14 03:50:23;;;;;;;5.75;2.15;;;18.80;77.10;;;;;;5030164;28;20041;-80
2021/09/14 03:52:48;;;;;;;2.80;2.60;;;18.90;76.90;;;;;;5030014;28;20662;-80
2021/09/14 03:55:14;;;;;;;1.80;1.70;;;18.90;77.30;;;;;;5029696;28;20025;-79
2021/09/14 03:57:40;;;;;;;1.60;1.50;;;18.90;76.70;;;;;;5029885;28;20106;-79
2021/09/14 04:00:07;;;;;;;2.38;2.20;;;18.90;76.40;;;;;;5015740;28;20040;-80
2021/09/14 04:02:55;;;;;;;1.98;1.88;;;18.80;77.50;;;;;;5015903;28;20112;-80
2021/09/14 04:05:33;;;;;;;1.75;1.65;;;18.80;77.70;;;;;;5033834;28;20053;-80
2021/09/14 04:10:44;;;;;;;1.50;1.40;;;18.60;77.30;;;;;;5033683;28;20088;-79
2021/09/14 04:13:10;;;;;;;2.30;2.05;;;18.50;76.60;;;;;;5033327;28;20029;-81
2021/09/14 04:15:37;;;;;;;2.17;2.03;;;18.60;76.80;;;;;;5016047;28;20025;-81
2021/09/14 04:18:03;;;;;;;3.08;2.85;;;18.50;77.20;;;;;;5033781;28;20473;-80
2021/09/14 04:20:30;;;;;;;2.92;2.58;;;18.60;76.10;;;;;;5033431;28;20049;-81
2021/09/14 04:22:55;;;;;;;1.50;1.40;;;18.60;76.10;;;;;;5033873;28;20027;-82
2021/09/14 04:25:21;;;;;;;2.72;2.47;;;18.60;77.00;;;;;;5033364;28;20029;-82
2021/09/14 04:27:49;;;;;;;1.75;1.65;;;18.50;75.60;;;;;;5033431;28;20390;-81
2021/09/14 04:30:15;;;;;;;3.20;2.97;;;18.50;76.70;;;;;;5015499;28;20524;-81
2021/09/14 04:32:41;;;;;;;1.67;1.58;;;18.60;76.80;;;;;;5033927;28;20079;-78
2021/09/14 04:35:08;;;;;;;1.70;1.60;;;18.60;75.50;;;;;;5033518;28;20583;-78
2021/09/14 04:37:33;;;;;;;2.15;1.98;;;18.50;74.90;;;;;;5033851;28;20687;-81
2021/09/14 04:39:59;;;;;;;2.00;1.88;;;18.50;75.90;;;;;;5032913;28;20513;-80
2021/09/14 04:42:25;;;;;;;3.45;2.03;;;18.40;75.20;;;;;;5033050;28;20021;-79
2021/09/14 04:44:50;;;;;;;2.60;2.40;;;18.30;75.90;;;;;;5033458;28;20104;-81
2021/09/14 04:47:16;;;;;;;1.60;1.50;;;18.20;76.10;;;;;;5015399;28;20029;-81
2021/09/14 04:49:42;;;;;;;3.10;2.85;;;18.30;76.20;;;;;;5033373;28;20033;-81
2021/09/14 04:52:08;;;;;;;2.45;2.25;;;18.40;76.20;;;;;;5032398;28;20421;-81
2021/09/14 04:54:34;;;;;;;3.40;3.10;;;18.30;75.30;;;;;;5033275;28;20036;-81
2021/09/14 04:57:01;;;;;;;2.90;2.70;;;18.60;74.80;;;;;;5032960;28;20025;-81
2021/09/14 04:59:27;;;;;;;4.32;3.95;;;18.70;74.00;;;;;;5014936;28;20037;-83
2021/09/14 05:01:53;;;;;;;2.60;2.40;;;18.70;74.20;;;;;;5014865;28;20036;-81
2021/09/14 05:04:19;;;;;;;2.35;2.17;;;18.60;76.50;;;;;;5014795;28;20473;-81
2021/09/14 05:06:45;;;;;;;2.88;2.58;;;18.20;77.20;;;;;;5032257;28;20022;-81
2021/09/14 05:09:11;;;;;;;2.05;1.92;;;18.50;77.50;;;;;;5032059;28;20022;-82
2021/09/14 05:11:36;;;;;;;3.47;3.20;;;18.60;78.00;;;;;;5013986;28;20139;-81
2021/09/14 05:14:02;;;;;;;1.77;1.67;;;18.70;77.60;;;;;;5014525;28;20040;-82
2021/09/14 05:16:28;;;;;;;1.50;1.40;;;18.80;77.60;;;;;;5031633;28;20561;-83
2021/09/14 05:18:54;;;;;;;1.60;1.50;;;18.60;77.60;;;;;;5013718;28;20079;-81
2021/09/14 05:21:20;;;;;;;2.03;1.92;;;18.80;77.90;;;;;;5031986;28;20048;-82
2021/09/14 05:23:45;;;;;;;2.03;1.85;;;18.80;78.00;;;;;;5013732;28;20025;-82
2021/09/14 05:26:12;;;;;;;3.42;3.20;;;18.70;77.60;;;;;;5014127;28;20029;-82
2021/09/14 05:28:39;;;;;;;1.60;1.50;;;18.80;77.70;;;;;;5014063;28;20696;-81
2021/09/14 05:31:07;;;;;;;2.17;2.00;;;18.90;77.10;;;;;;5031245;28;20349;-82
2021/09/14 05:33:34;;;;;;;1.50;1.40;;;18.80;77.40;;;;;;5032420;28;20022;-83
2021/09/14 05:36:00;;;;;;;1.70;1.60;;;18.90;77.80;;;;;;5030161;28;20037;-83
2021/09/14 05:38:27;;;;;;;1.40;1.30;;;18.90;76.40;;;;;;5031303;28;20637;-83
2021/09/14 05:40:54;;;;;;;2.38;2.17;;;19.00;75.70;;;;;;5030745;28;20041;-85
2021/09/14 05:43:25;;;;;;;1.40;1.30;;;19.00;77.00;;;;;;5031935;28;20022;-83
2021/09/14 05:45:51;;;;;;;1.50;1.40;;;19.10;75.80;;;;;;5030402;28;20029;-83
2021/09/14 05:48:16;;;;;;;3.90;2.30;;;19.10;76.10;;;;;;5030594;28;20041;-82
2021/09/14 05:50:43;;;;;;;1.40;1.30;;;19.20;76.20;;;;;;5029873;28;20033;-81
2021/09/14 05:53:09;;;;;;;1.60;1.50;;;19.30;73.90;;;;;;5031904;28;20370;-80
2021/09/14 05:55:37;;;;;;;6.65;6.00;;;19.40;73.50;;;;;;5030605;28;20056;-79
2021/09/14 05:58:04;;;;;;;6.25;5.65;;;19.40;73.00;;;;;;5031452;28;20505;-79
2021/09/14 06:00:30;;;;;;;6.07;5.38;;;19.50;73.10;;;;;;5031617;28;20041;-79
2021/09/14 06:02:56;;;;;;;5.13;4.63;;;19.40;72.80;;;;;;5030517;28;20068;-81
2021/09/14 06:05:21;;;;;;;7.85;7.07;;;19.40;73.00;;;;;;5030292;28;20045;-81
2021/09/14 06:07:47;;;;;;;3.33;3.05;;;19.40;73.70;;;;;;5031317;28;20025;-80
2021/09/14 06:10:22;;;;;;;2.45;2.25;;;19.50;73.30;;;;;;5031139;28;20572;-81
2021/09/14 06:12:48;;;;;;;3.10;2.67;;;19.60;72.90;;;;;;5030063;28;20112;-81
2021/09/14 06:15:13;;;;;;;3.40;3.10;;;19.70;73.80;;;;;;5031221;28;20108;-81
2021/09/14 06:17:40;;;;;;;3.72;3.42;;;19.70;73.30;;;;;;5030499;28;20369;-82
2021/09/14 06:22:37;;;;;;;17.25;3.55;;;19.60;73.90;;;;;;4989608;28;20057;-80
2021/09/14 06:25:15;;;;;;;2.88;2.67;;;19.80;74.10;;;;;;4990770;28;20030;-81
2021/09/14 06:27:41;;;;;;;3.13;2.85;;;19.70;74.20;;;;;;4990661;28;20081;-81
2021/09/14 06:30:08;;;;;;;4.60;2.78;;;19.90;74.60;;;;;;4988702;28;20029;-80
2021/09/14 06:32:33;;;;;;;2.78;2.55;;;19.90;73.00;;;;;;4990173;28;20109;-82
2021/09/14 06:35:00;;;;;;;4.00;3.15;;;20.00;73.80;;;;;;4991613;28;20112;-81
2021/09/14 06:37:26;;;;;;;3.50;3.25;;;20.20;74.20;;;;;;4991552;28;20053;-78
2021/09/14 06:39:52;;;;;;;3.85;3.50;;;20.20;72.30;;;;;;5006501;28;20121;-81
2021/09/14 06:42:17;;;;;;;2.60;2.40;;;20.10;72.60;;;;;;5006409;28;20496;-77
2021/09/14 06:44:43;;;;;;;3.10;2.85;;;20.30;71.20;;;;;;4990483;28;20492;-82
2021/09/14 06:47:09;;;;;;;1.90;1.80;;;20.30;71.90;;;;;;4991286;28;20040;-81
2021/09/14 06:49:35;;;;;;;2.47;2.28;;;20.40;72.30;;;;;;4990787;28;20402;-81
2021/09/14 06:52:00;;;;;;;2.60;2.40;;;20.50;71.40;;;;;;4991327;28;20034;-81
2021/09/14 06:54:26;;;;;;;6.13;2.13;;;20.50;70.70;;;;;;4980549;28;20033;-82
2021/09/14 06:56:52;;;;;;;2.67;2.28;;;20.30;71.20;;;;;;4990589;28;20023;-83
2021/09/14 06:59:18;;;;;;;2.20;2.08;;;20.60;72.60;;;;;;4989389;28;20034;-79
2021/09/14 07:01:45;;;;;;;2.15;1.95;;;20.80;71.60;;;;;;4980248;28;20546;-79
2021/09/14 07:04:10;;;;;;;1.40;1.30;;;20.80;70.70;;;;;;4982367;28;20069;-79
2021/09/14 07:06:36;;;;;;;2.15;1.95;;;20.80;70.30;;;;;;4980499;28;20030;-81
2021/09/14 07:09:02;;;;;;;1.77;1.67;;;20.80;70.50;;;;;;4990505;28;20030;-81
2021/09/14 07:11:28;;;;;;;3.40;3.10;;;20.90;71.60;;;;;;4990607;28;20382;-80
2021/09/14 07:13:55;;;;;;;1.52;1.42;;;21.00;72.70;;;;;;4990833;28;20033;-79
2021/09/14 07:16:21;;;;;;;1.98;1.88;;;21.10;70.80;;;;;;4988923;28;20029;-79
2021/09/14 07:18:48;;;;;;;2.00;1.40;;;21.20;70.70;;;;;;4990295;28;20026;-81
2021/09/14 07:21:14;;;;;;;1.98;1.85;;;21.20;69.70;;;;;;5473405;22;20053;-80
2021/09/14 07:23:39;;;;;;;1.23;1.13;;;21.20;70.60;;;;;;5029779;28;20116;-80
2021/09/14 07:26:05;;;;;;;1.55;1.45;;;21.20;70.10;;;;;;5029355;28;20107;-82
2021/09/14 07:28:31;;;;;;;3.15;1.67;;;21.10;68.70;;;;;;5028955;28;20021;-81
2021/09/14 07:30:57;;;;;;;1.15;1.13;;;21.10;69.50;;;;;;5010908;28;20029;-80
2021/09/14 07:33:23;;;;;;;2.47;2.28;;;21.10;70.00;;;;;;5027897;28;20081;-78
2021/09/14 07:35:49;;;;;;;3.35;2.45;;;21.20;69.70;;;;;;5029093;28;20021;-79
2021/09/14 07:38:14;;;;;;;2.10;1.92;;;21.30;69.50;;;;;;5028695;28;20091;-81
2021/09/14 07:40:40;;;;;;;2.20;1.95;;;21.30;68.80;;;;;;5008466;28;20443;-82
2021/09/14 07:43:06;;;;;;;1.38;1.27;;;21.50;68.70;;;;;;5011870;28;20024;-79
2021/09/14 07:45:32;;;;;;;0.90;0.90;;;21.60;68.50;;;;;;5011694;28;20025;-80
2021/09/14 07:47:58;;;;;;;1.98;1.63;;;21.80;68.50;;;;;;5006078;28;20022;-79
2021/09/14 07:50:24;;;;;;;0.98;0.98;;;21.90;67.80;;;;;;5028435;28;20100;-81
2021/09/14 07:52:50;;;;;;;1.73;1.52;;;21.90;67.50;;;;;;5029194;28;20022;-82
2021/09/14 07:55:16;;;;;;;0.95;0.95;;;22.00;67.70;;;;;;5029242;28;20040;-81
2021/09/14 07:57:42;;;;;;;0.82;0.82;;;22.10;67.20;;;;;;5029402;28;20060;-80
2021/09/14 08:00:09;;;;;;;1.38;1.27;;;22.30;67.10;;;;;;5011565;28;20112;-78
2021/09/14 08:02:35;;;;;;;1.77;1.67;;;22.50;67.30;;;;;;5029683;28;20026;-84
2021/09/14 08:05:00;;;;;;;1.35;1.25;;;22.80;68.40;;;;;;5011829;28;20087;-81
2021/09/14 08:07:26;;;;;;;2.05;1.85;;;22.90;67.60;;;;;;5029678;28;20017;-79
2021/09/14 08:09:52;;;;;;;1.33;1.25;;;23.00;68.30;;;;;;5029548;28;20103;-79
2021/09/14 08:12:18;;;;;;;1.00;1.00;;;23.20;68.00;;;;;;5029651;28;20025;-79
2021/09/14 08:14:43;;;;;;;0.80;0.80;;;23.30;67.10;;;;;;5028955;28;20551;-79
2021/09/14 08:17:12;;;;;;;1.38;1.20;;;23.50;67.70;;;;;;5028878;28;20034;-80
2021/09/14 08:19:41;;;;;;;1.08;1.02;;;23.80;68.40;;;;;;5011856;28;20400;-80
2021/09/14 08:22:07;;;;;;;1.23;1.05;;;24.20;65.80;;;;;;5029628;28;20053;-81
2021/09/14 08:24:33;;;;;;;2.30;1.65;;;24.40;66.10;;;;;;5029066;28;20071;-81
2021/09/14 08:26:59;;;;;;;1.65;1.55;;;24.70;66.50;;;;;;5029366;28;20575;-80
2021/09/14 08:29:24;;;;;;;0.95;0.95;;;24.80;66.10;;;;;;5010857;28;20025;-81
2021/09/14 08:31:50;;;;;;;1.42;1.33;;;24.80;64.00;;;;;;5011503;28;20056;-80
2021/09/14 08:34:16;;;;;;;0.93;0.93;;;25.00;63.80;;;;;;5028333;28;20029;-80
2021/09/14 08:36:42;;;;;;;1.75;1.50;;;25.00;65.20;;;;;;5029657;28;20669;-80
2021/09/14 08:39:08;;;;;;;0.60;0.60;;;25.20;65.10;;;;;;5029247;28;20087;-81
2021/09/14 08:41:33;;;;;;;1.42;1.33;;;25.50;63.80;;;;;;5011544;28;20025;-80
2021/09/14 08:44:00;;;;;;;1.30;1.20;;;25.60;64.70;;;;;;5011778;28;20080;-79
2021/09/14 08:46:25;;;;;;;1.00;0.88;;;25.90;62.30;;;;;;5032604;28;20036;-76
2021/09/14 08:48:52;;;;;;;1.15;1.05;;;26.10;64.00;;;;;;5032800;28;20033;-77
2021/09/14 08:51:18;;;;;;;0.68;0.68;;;26.20;62.30;;;;;;5015067;28;20408;-79
2021/09/14 08:53:44;;;;;;;11.50;2.55;;;26.40;61.80;;;;;;5014564;28;20543;-80
2021/09/14 08:56:10;;;;;;;0.90;0.90;;;26.40;62.50;;;;;;5032611;28;20037;-79
2021/09/14 08:58:36;;;;;;;1.25;1.02;;;26.70;62.00;;;;;;5032797;28;20108;-79
2021/09/14 09:01:10;;;;;;;0.98;0.95;;;26.60;61.00;;;;;;5014962;28;20396;-81
2021/09/14 09:03:37;;;;;;;0.70;0.70;;;26.70;59.70;;;;;;5014254;28;20025;-81
2021/09/14 09:06:03;;;;;;;1.60;1.38;;;27.10;60.00;;;;;;5032668;28;20040;-81
2021/09/14 09:08:31;;;;;;;1.10;1.02;;;27.30;58.60;;;;;;5014168;28;20033;-81
2021/09/14 09:11:04;;;;;;;0.93;0.93;;;27.50;59.20;;;;;;5014330;28;20021;-84
2021/09/14 09:13:39;;;;;;;0.70;0.70;;;27.70;59.30;;;;;;5032106;28;20021;-83
2021/09/14 09:16:06;;;;;;;1.10;1.00;;;27.80;59.00;;;;;;5031910;28;20066;-83
2021/09/14 09:18:31;;;;;;;0.80;0.70;;;27.90;58.20;;;;;;5031972;28;20017;-81
2021/09/14 09:21:02;;;;;;;1.00;0.90;;;28.00;58.20;;;;;;5013580;28;20114;-82
2021/09/14 09:23:29;;;;;;;0.65;0.65;;;27.80;58.50;;;;;;5013496;28;20026;-83
2021/09/14 09:26:06;;;;;;;0.60;0.60;;;28.20;58.60;;;;;;5013554;28;20033;-82
2021/09/14 09:28:32;;;;;;;0.75;0.68;;;28.20;57.70;;;;;;5031328;28;20092;-82
2021/09/14 09:31:00;;;;;;;1.35;1.25;;;28.40;57.20;;;;;;5030921;28;20026;-82
2021/09/14 09:33:28;;;;;;;2.35;1.20;;;28.60;56.30;;;;;;5031621;28;20033;-82
2021/09/14 09:36:04;;;;;;;0.77;0.77;;;28.20;57.80;;;;;;5028231;28;20033;-81
2021/09/14 09:38:30;;;;;;;0.50;0.47;;;28.20;56.90;;;;;;5013328;28;20384;-79
2021/09/14 09:40:56;;;;;;;1.30;1.20;;;28.40;52.80;;;;;;5031278;28;20489;-81
2021/09/14 09:43:31;;;;;;;1.35;0.85;;;28.90;53.90;;;;;;5013759;28;20469;-80
2021/09/14 09:46:09;;;;;;;0.70;0.60;;;28.90;53.90;;;;;;5011301;28;20511;-84
2021/09/14 09:48:37;;;;;;;0.80;0.60;;;29.20;54.00;;;;;;5028904;28;20334;-82
2021/09/14 09:51:04;;;;;;;1.40;1.30;;;28.90;54.40;;;;;;5029714;28;20068;-80
2021/09/14 09:53:37;;;;;;;3.08;1.83;;;29.20;55.80;;;;;;5028155;28;20022;-82
2021/09/14 09:56:04;;;;;;;1.35;0.88;;;29.10;52.70;;;;;;5029712;28;20335;-82
2021/09/14 09:58:30;;;;;;;1.00;0.98;;;29.40;53.30;;;;;;5029979;28;20135;-83
2021/09/14 10:01:05;;;;;;;1.25;1.15;;;29.50;52.20;;;;;;5012723;28;20083;-82
2021/09/14 10:03:33;;;;;;;0.45;0.45;;;29.20;51.70;;;;;;5011555;28;20108;-83
2021/09/14 10:06:08;;;;;;;1.23;0.90;;;29.30;52.10;;;;;;5031218;28;20512;-80
2021/09/14 10:08:35;;;;;;;0.55;0.55;;;29.50;51.70;;;;;;5030520;28;20080;-83
2021/09/14 10:11:00;;;;;;;1.05;0.85;;;29.90;52.40;;;;;;5030222;28;20028;-81
2021/09/14 10:13:41;;;;;;;0.57;0.57;;;29.80;52.20;;;;;;5031045;28;20021;-80
2021/09/14 10:16:09;;;;;;;0.32;0.32;;;30.20;51.30;;;;;;5027958;28;20025;-82
2021/09/14 10:18:37;;;;;;;1.77;0.60;;;29.90;51.60;;;;;;5030768;28;20440;-82
2021/09/14 10:21:03;;;;;;;1.45;1.05;;;29.70;51.10;;;;;;5012297;28;20508;-80
2021/09/14 10:23:34;;;;;;;0.77;0.63;;;29.80;51.30;;;;;;5012700;28;20059;-79
2021/09/14 10:26:12;;;;;;;0.38;0.38;;;29.70;51.30;;;;;;5012955;28;20112;-79
2021/09/14 10:28:49;;;;;;;0.85;0.68;;;29.80;51.20;;;;;;5030500;28;20025;-77
2021/09/14 10:31:31;;;;;;;0.82;0.60;;;29.90;50.70;;;;;;5012993;28;20025;-80
2021/09/14 10:34:01;;;;;;;0.85;0.65;;;29.80;50.90;;;;;;5013066;28;20550;-80
2021/09/14 10:36:27;;;;;;;0.85;0.80;;;30.00;51.50;;;;;;5030541;28;20041;-81
2021/09/14 10:38:53;;;;;;;3.10;1.88;;;29.50;51.80;;;;;;5030780;28;20052;-79
2021/09/14 10:41:18;;;;;;;1.33;1.17;;;29.70;50.80;;;;;;5030792;28;20079;-80
2021/09/14 10:44:00;;;;;;;0.55;0.43;;;30.30;50.70;;;;;;5030963;28;20496;-81
2021/09/14 10:46:26;;;;;;;0.22;0.22;;;30.40;50.60;;;;;;5012432;28;20057;-80
2021/09/14 10:48:52;;;;;;;1.27;0.82;;;30.50;50.10;;;;;;5012611;28;20025;-81
2021/09/14 10:51:19;;;;;;;0.73;0.73;;;30.90;49.70;;;;;;5030336;28;20488;-82
2021/09/14 10:54:00;;;;;;;0.82;0.75;;;30.70;49.20;;;;;;5012936;28;20022;-80
2021/09/14 10:56:28;;;;;;;0.43;0.43;;;30.90;50.90;;;;;;5012306;28;20480;-80
2021/09/14 10:58:55;;;;;;;0.70;0.57;;;31.00;50.00;;;;;;5012449;28;20021;-79
2021/09/14 11:01:22;;;;;;;1.08;0.73;;;31.30;49.70;;;;;;5012322;28;20064;-78
2021/09/14 11:04:00;;;;;;;0.60;0.57;;;31.10;48.70;;;;;;5012996;28;20503;-80
2021/09/14 11:06:29;;;;;;;0.88;0.82;;;30.80;48.90;;;;;;5012172;28;20087;-79
2021/09/14 11:09:00;;;;;;;1.63;1.03;;;30.70;49.20;;;;;;5030480;28;20025;-80
2021/09/14 11:11:26;;;;;;;1.75;0.68;;;30.70;49.70;;;;;;5029517;28;20057;-80
2021/09/14 11:13:52;;;;;;;0.82;0.60;;;30.50;49.00;;;;;;5026852;28;20116;-79
2021/09/14 11:16:18;;;;;;;0.98;0.80;;;30.60;49.00;;;;;;5029246;28;20112;-82
2021/09/14 11:18:45;;;;;;;0.50;0.50;;;30.90;48.90;;;;;;5029985;28;20083;-79
2021/09/14 11:21:16;;;;;;;0.68;0.68;;;30.70;49.00;;;;;;5029605;28;20133;-79
2021/09/14 11:23:45;;;;;;;1.23;1.05;;;30.80;48.70;;;;;;5011887;28;20026;-78
2021/09/14 11:26:12;;;;;;;1.10;1.05;;;30.90;48.30;;;;;;5029661;28;20029;-78
2021/09/14 11:28:40;;;;;;;0.75;0.65;;;30.70;48.00;;;;;;5012079;28;20025;-78
2021/09/14 11:31:12;;;;;;;6.13;1.95;;;30.50;48.40;;;;;;5029658;28;20468;-78
2021/09/14 11:33:46;;;;;;;3.40;1.17;;;30.60;48.50;;;;;;5030359;28;20033;-78
2021/09/14 11:36:12;;;;;;;0.60;0.60;;;30.60;48.80;;;;;;5029568;28;20030;-79
2021/09/14 11:38:38;;;;;;;1.05;0.50;;;30.90;49.70;;;;;;5012035;28;20052;-78
2021/09/14 11:41:09;;;;;;;0.28;0.28;;;31.00;49.20;;;;;;5029210;28;20555;-80
2021/09/14 11:43:37;;;;;;;0.20;0.20;;;31.30;48.50;;;;;;5012217;28;20493;-79
2021/09/14 11:46:18;;;;;;;0.68;0.68;;;31.40;48.00;;;;;;5029574;28;20025;-79
2021/09/14 11:48:56;;;;;;;0.63;0.43;;;31.30;47.70;;;;;;5029834;28;20032;-79
2021/09/14 11:51:22;;;;;;;0.43;0.43;;;31.30;48.10;;;;;;5029819;28;20040;-79
2021/09/14 11:53:50;;;;;;;1.55;0.73;;;31.60;47.90;;;;;;5029596;28;20029;-79
2021/09/14 11:56:18;;;;;;;0.65;0.57;;;31.50;47.60;;;;;;5029631;28;20119;-79
2021/09/14 11:58:46;;;;;;;0.93;0.60;;;31.20;47.30;;;;;;5029503;28;20114;-78
2021/09/14 12:01:17;;;;;;;0.65;0.47;;;31.40;47.80;;;;;;5012045;28;20112;-79
2021/09/14 12:03:48;;;;;;;1.42;0.98;;;31.70;47.10;;;;;;5011601;28;20238;-79
2021/09/14 12:06:21;;;;;;;9.68;1.02;;;31.50;46.00;;;;;;5011914;28;20033;-77
2021/09/14 12:08:47;;;;;;;1.13;0.88;;;31.30;47.30;;;;;;5011596;28;20021;-78
2021/09/14 12:11:29;;;;;;;0.38;0.28;;;31.70;47.50;;;;;;5029812;28;20040;-76
2021/09/14 12:14:02;;;;;;;0.30;0.30;;;31.80;46.30;;;;;;5029420;28;20025;-84
2021/09/14 12:16:32;;;;;;;0.45;0.45;;;31.50;46.70;;;;;;5011552;28;20033;-79
2021/09/14 12:18:59;;;;;;;0.40;0.40;;;31.70;46.40;;;;;;5029923;28;20022;-81
2021/09/14 12:21:26;;;;;;;0.30;0.30;;;30.70;46.90;;;;;;5032952;28;20068;-80
2021/09/14 12:23:53;;;;;;;0.65;0.65;;;31.50;46.70;;;;;;5033297;28;20508;-78
2021/09/14 12:26:28;;;;;;;0.65;0.60;;;31.90;46.30;;;;;;5033553;28;20029;-78
2021/09/14 12:28:58;;;;;;;2.33;1.75;;;32.40;47.00;;;;;;4995946;28;20449;-79
2021/09/14 12:31:25;;;;;;;;;;;32.70;46.20;;;;;;5032596;28;20048;-80
2021/09/14 12:33:51;;;;;;;1.13;0.82;;;33.10;45.30;;;;;;5012406;28;20268;-78
2021/09/14 12:36:18;;;;;;;0.75;0.55;;;33.50;45.30;;;;;;5014780;28;20481;-80
2021/09/14 12:38:44;;;;;;;0.80;0.73;;;33.10;44.80;;;;;;5033141;28;20057;-77
2021/09/14 12:41:10;;;;;;;0.70;0.70;;;31.40;45.70;;;;;;5032109;28;20033;-77
2021/09/14 12:43:36;;;;;;;0.95;0.85;;;31.50;46.70;;;;;;5031922;28;20101;-80
2021/09/14 12:46:03;;;;;;;0.55;0.55;;;31.70;46.10;;;;;;5033131;28;20080;-78
2021/09/14 12:48:29;;;;;;;1.00;0.70;;;31.90;45.30;;;;;;5032688;28;20018;-78
2021/09/14 12:50:55;;;;;;;0.40;0.40;;;31.80;46.70;;;;;;5032900;28;20112;-78
2021/09/14 12:53:21;;;;;;;0.63;0.47;;;31.70;45.60;;;;;;5032882;28;20025;-79
2021/09/14 12:55:48;;;;;;;6.43;2.17;;;32.30;45.50;;;;;;5032960;28;20104;-78
2021/09/14 12:58:13;;;;;;;0.40;0.40;;;32.20;45.60;;;;;;5047763;28;20112;-84
2021/09/14 13:00:39;;;;;;;0.60;0.60;;;32.40;45.30;;;;;;5052710;28;20116;-82
2021/09/14 13:03:05;;;;;;;1.27;0.65;;;32.80;45.50;;;;;;5034594;28;20032;-82
2021/09/14 13:05:33;;;;;;;1.00;0.82;;;35.10;45.20;;;;;;5052290;28;20041;-80
2021/09/14 13:10:35;;;;;;;0.35;0.35;;;35.90;42.60;;;;;;5790796;22;20419;-81
2021/09/14 13:18:43;;;;;;;0.63;0.55;;;34.20;44.00;;;;;;5030018;28;20049;-80
2021/09/14 13:21:09;;;;;;;0.60;0.55;;;34.20;43.50;;;;;;5014958;28;20076;-78
2021/09/14 13:23:35;;;;;;;0.85;0.75;;;34.20;43.80;;;;;;5032040;28;20101;-80
2021/09/14 13:26:02;;;;;;;0.57;0.57;;;34.50;44.30;;;;;;5015049;28;20120;-77
2021/09/14 13:28:27;;;;;;;0.43;0.25;;;34.50;43.80;;;;;;5048789;28;20349;-78
2021/09/14 13:30:53;;;;;;;0.75;0.60;;;33.50;43.40;;;;;;5038984;28;20521;-79
2021/09/14 13:33:19;;;;;;;0.75;0.50;;;33.50;43.50;;;;;;5030925;28;20071;-78
2021/09/14 13:35:45;;;;;;;0.43;0.43;;;33.60;43.70;;;;;;5031565;28;20081;-79
2021/09/14 13:38:10;;;;;;;1.30;1.02;;;33.20;42.90;;;;;;5031589;28;20083;-79
2021/09/14 13:40:39;;;;;;;2.05;1.35;;;32.30;43.30;;;;;;5032191;28;20050;-78
2021/09/14 13:43:05;;;;;;;0.90;0.70;;;31.90;44.40;;;;;;5031476;28;20040;-79
2021/09/14 13:48:46;;;;;;;0.60;0.45;;;33.10;43.90;;;;;;5031970;28;20503;-80
2021/09/14 13:51:15;;;;;;;1.88;0.65;;;32.70;43.00;;;;;;5001572;28;20025;-81
2021/09/14 13:57:12;;;;;;;0.40;0.40;;;33.50;43.60;;;;;;5030109;28;20109;-80